Time;durP1;ratioP1;P1;durP2;ratioP2;P2;SDS_P1;SDS_P2;PMS_P1;PMS_P2;Temp;Humidity;BMP_temperature;BMP_pressure;BME280_temperature;BME280_humidity;BME280_pressure;Samples;Min_cycle;Max_cycle;Signal;HPM_P1;HPM_P2
2021/09/12 00:00:58;;;;;;;11.52;6.95;;;;;;;;;;4975565;28;20099;-84
2021/09/12 00:03:25;;;;;;;10.55;7.25;;;;;;;;;;4975100;28;20412;-91
2021/09/12 00:05:52;;;;;;;7.97;5.75;;;;;;;;;;4975626;28;20081;-84
2021/09/12 00:08:18;;;;;;;14.48;8.35;;;;;;;;;;4976762;28;20022;-85
2021/09/12 00:10:44;;;;;;;9.50;6.30;;;;;;;;;;4975349;28;20033;-89
2021/09/12 00:13:11;;;;;;;9.48;6.13;;;;;;;;;;4975568;28;20027;-92
2021/09/12 00:15:37;;;;;;;11.68;8.23;;;;;;;;;;4975698;28;20042;-89
2021/09/12 00:18:03;;;;;;;10.23;6.90;;;;;;;;;;4977617;28;20404;-90
2021/09/12 00:20:30;;;;;;;13.02;6.18;;;;;;;;;;4980047;28;20104;-91
2021/09/12 00:22:56;;;;;;;11.05;6.18;;;;;;;;;;4975384;28;20080;-84
2021/09/12 00:25:22;;;;;;;18.05;7.38;;;;;;;;;;4975433;28;20034;-91
2021/09/12 00:27:49;;;;;;;10.60;6.90;;;;;;;;;;4976216;28;20027;-91
2021/09/12 00:30:15;;;;;;;10.75;7.45;;;;;;;;;;4976972;28;20109;-89
2021/09/12 00:32:42;;;;;;;10.50;6.38;;;;;;;;;;4976386;28;20100;-87
2021/09/12 00:35:09;;;;;;;8.73;5.68;;;;;;;;;;4976042;28;20023;-85
2021/09/12 00:37:36;;;;;;;10.75;7.50;;;;;;;;;;4974830;28;20038;-90
2021/09/12 00:40:03;;;;;;;15.50;5.45;;;;;;;;;;4976705;28;20101;-84
2021/09/12 00:42:29;;;;;;;8.57;5.85;;;;;;;;;;4974989;28;20054;-87
2021/09/12 00:44:56;;;;;;;8.65;6.43;;;;;;;;;;4975044;28;20033;-91
2021/09/12 00:47:22;;;;;;;10.30;7.60;;;;;;;;;;4976129;28;20054;-89
2021/09/12 00:49:48;;;;;;;10.88;6.65;;;;;;;;;;4975194;28;20034;-90
2021/09/12 00:52:15;;;;;;;9.75;5.85;;;;;;;;;;4976485;28;20023;-84
2021/09/12 00:54:42;;;;;;;10.93;6.00;;;;;;;;;;4975045;28;20398;-91
2021/09/12 00:57:09;;;;;;;11.52;7.78;;;;;;;;;;4975779;28;20089;-89
2021/09/12 00:59:36;;;;;;;9.48;6.05;;;;;;;;;;4975794;28;20055;-83
2021/09/12 01:02:03;;;;;;;9.13;6.32;;;;;;;;;;4976280;28;20042;-90
2021/09/12 01:04:29;;;;;;;11.15;7.93;;;;;;;;;;4974054;28;20038;-88
2021/09/12 01:06:56;;;;;;;10.18;6.13;;;;;;;;;;4974228;28;20037;-83
2021/09/12 01:09:22;;;;;;;14.02;5.20;;;;;;;;;;4974137;28;20546;-84
2021/09/12 01:11:49;;;;;;;11.30;7.32;;;;;;;;;;4974171;28;20023;-87
2021/09/12 01:14:15;;;;;;;8.48;5.43;;;;;;;;;;4973965;28;20081;-90
2021/09/12 01:16:42;;;;;;;10.30;6.35;;;;;;;;;;4973891;28;20031;-84
2021/09/12 01:19:08;;;;;;;10.02;7.05;;;;;;;;;;4974010;28;20038;-90
2021/09/12 01:21:34;;;;;;;10.05;4.68;;;;;;;;;;4975077;28;20026;-88
2021/09/12 01:24:00;;;;;;;11.80;7.90;;;;;;;;;;4973929;28;20034;-84
2021/09/12 01:26:28;;;;;;;9.25;5.40;;;;;;;;;;4975120;28;20109;-84
2021/09/12 01:28:55;;;;;;;7.63;5.68;;;;;;;;;;4973907;28;20126;-83
2021/09/12 01:31:26;;;;;;;9.15;6.15;;;;;;;;;;4973962;28;20198;-91
2021/09/12 01:33:53;;;;;;;11.98;5.95;;;;;;;;;;4973923;28;20030;-84
2021/09/12 01:36:19;;;;;;;9.50;5.68;;;;;;;;;;4974949;28;20041;-86
2021/09/12 01:38:46;;;;;;;11.55;6.20;;;;;;;;;;4973598;28;20431;-89
2021/09/12 01:41:12;;;;;;;7.82;5.53;;;;;;;;;;4975254;28;20396;-87
2021/09/12 01:43:48;;;;;;;12.85;6.78;;;;;;;;;;4973724;28;20030;-83
2021/09/12 01:46:14;;;;;;;10.23;6.13;;;;;;;;;;4973916;28;20038;-84
2021/09/12 01:48:41;;;;;;;9.52;5.55;;;;;;;;;;4975766;28;20487;-83
2021/09/12 01:51:07;;;;;;;11.77;7.90;;;;;;;;;;4977712;28;20035;-88
2021/09/12 01:53:34;;;;;;;10.05;6.20;;;;;;;;;;4977787;28;20027;-84
2021/09/12 01:56:00;;;;;;;9.20;5.65;;;;;;;;;;4978811;28;20027;-91
2021/09/12 01:58:27;;;;;;;8.60;5.35;;;;;;;;;;4977596;28;20447;-84
2021/09/12 02:00:53;;;;;;;8.48;5.63;;;;;;;;;;4977861;28;20027;-89
2021/09/12 02:03:19;;;;;;;12.57;7.15;;;;;;;;;;4977248;28;20061;-89
2021/09/12 02:05:46;;;;;;;10.63;5.70;;;;;;;;;;4977570;28;20027;-90
2021/09/12 02:08:12;;;;;;;8.63;4.78;;;;;;;;;;4978902;28;20023;-89
2021/09/12 02:10:38;;;;;;;9.63;5.32;;;;;;;;;;4977640;28;20038;-83
2021/09/12 02:13:04;;;;;;;9.27;5.57;;;;;;;;;;4978745;28;20023;-87
2021/09/12 02:15:33;;;;;;;9.82;5.47;;;;;;;;;;4977535;28;20065;-89
2021/09/12 02:17:59;;;;;;;8.80;5.32;;;;;;;;;;4977606;28;20046;-89
2021/09/12 02:20:26;;;;;;;9.23;5.82;;;;;;;;;;4977483;28;20038;-91
2021/09/12 02:22:52;;;;;;;9.05;5.60;;;;;;;;;;4978578;28;20031;-89
2021/09/12 02:25:18;;;;;;;14.00;7.40;;;;;;;;;;4977395;28;20023;-87
2021/09/12 02:27:44;;;;;;;9.85;5.38;;;;;;;;;;4977228;28;20035;-89
2021/09/12 02:30:11;;;;;;;11.07;5.70;;;;;;;;;;4978678;28;20022;-81
2021/09/12 02:32:37;;;;;;;8.80;5.43;;;;;;;;;;4978436;28;20491;-89
2021/09/12 02:35:03;;;;;;;9.30;5.35;;;;;;;;;;4977226;28;20065;-89
2021/09/12 02:37:29;;;;;;;8.73;5.82;;;;;;;;;;4976987;28;20182;-84
2021/09/12 02:39:55;;;;;;;11.60;5.85;;;;;;;;;;4977260;28;20030;-89
2021/09/12 02:42:21;;;;;;;10.80;6.38;;;;;;;;;;4978872;28;20035;-89
2021/09/12 02:44:47;;;;;;;9.73;5.85;;;;;;;;;;4977121;28;20057;-88
2021/09/12 02:47:14;;;;;;;7.65;5.40;;;;;;;;;;4977111;28;20474;-88
2021/09/12 02:49:40;;;;;;;12.02;5.95;;;;;;;;;;4977039;28;20464;-84
2021/09/12 02:52:06;;;;;;;13.77;5.45;;;;;;;;;;4977012;28;20049;-88
2021/09/12 02:54:33;;;;;;;8.80;5.22;;;;;;;;;;4978093;28;20022;-91
2021/09/12 02:56:59;;;;;;;7.47;4.88;;;;;;;;;;4978463;28;20046;-88
2021/09/12 02:59:25;;;;;;;7.63;4.88;;;;;;;;;;4976366;28;20074;-89
2021/09/12 03:01:51;;;;;;;7.40;5.10;;;;;;;;;;4976342;28;20033;-89
2021/09/12 03:04:17;;;;;;;8.10;5.15;;;;;;;;;;4976750;28;20526;-90
2021/09/12 03:06:44;;;;;;;10.82;6.38;;;;;;;;;;4976601;28;20034;-91
2021/09/12 03:09:10;;;;;;;9.05;5.28;;;;;;;;;;4977775;28;20026;-89
2021/09/12 03:11:36;;;;;;;8.40;5.68;;;;;;;;;;4977648;28;20031;-85
2021/09/12 03:14:03;;;;;;;9.25;5.13;;;;;;;;;;4977666;28;20053;-90
2021/09/12 03:16:29;;;;;;;10.32;6.32;;;;;;;;;;4976194;28;20103;-85
2021/09/12 03:18:56;;;;;;;8.40;5.32;;;;;;;;;;4976336;28;20042;-86
2021/09/12 03:21:22;;;;;;;9.10;5.10;;;;;;;;;;4976129;28;20113;-84
2021/09/12 03:23:48;;;;;;;9.25;4.57;;;;;;;;;;4976329;28;20038;-89
2021/09/12 03:26:14;;;;;;;9.02;5.75;;;;;;;;;;4976327;28;20118;-84
2021/09/12 03:28:41;;;;;;;9.73;5.13;;;;;;;;;;4977356;28;20038;-83
2021/09/12 03:31:07;;;;;;;10.93;5.30;;;;;;;;;;4976026;28;20042;-89
2021/09/12 03:33:33;;;;;;;11.05;5.50;;;;;;;;;;4976066;28;20031;-88
2021/09/12 03:35:59;;;;;;;9.02;5.40;;;;;;;;;;4975894;28;20118;-84
2021/09/12 03:38:26;;;;;;;6.82;4.47;;;;;;;;;;4975997;28;20035;-89
2021/09/12 03:40:52;;;;;;;7.68;5.03;;;;;;;;;;4976047;28;20031;-91
2021/09/12 03:43:18;;;;;;;8.30;4.93;;;;;;;;;;4977224;28;20023;-89
2021/09/12 03:45:47;;;;;;;9.45;4.75;;;;;;;;;;4976890;28;20029;-89
2021/09/12 03:48:13;;;;;;;10.60;5.45;;;;;;;;;;4975983;28;20484;-89
2021/09/12 03:50:39;;;;;;;15.23;6.18;;;;;;;;;;4975919;28;20027;-89
2021/09/12 03:53:05;;;;;;;7.22;4.88;;;;;;;;;;4975813;28;20027;-89
2021/09/12 03:55:32;;;;;;;7.93;5.35;;;;;;;;;;4975682;28;20031;-88
2021/09/12 03:57:58;;;;;;;7.55;5.30;;;;;;;;;;4975689;28;20039;-89
2021/09/12 04:00:24;;;;;;;8.57;5.35;;;;;;;;;;4976991;28;20074;-86
2021/09/12 04:02:50;;;;;;;16.13;5.68;;;;;;;;;;4975795;28;20050;-89
2021/09/12 04:05:16;;;;;;;10.43;5.60;;;;;;;;;;4975548;28;20030;-85
2021/09/12 04:07:43;;;;;;;9.38;6.07;;;;;;;;;;4976606;28;20023;-90
2021/09/12 04:10:09;;;;;;;19.15;7.72;;;;;;;;;;4974960;28;20038;-88
2021/09/12 04:12:36;;;;;;;13.45;7.88;;;;;;;;;;4975197;28;20023;-89
2021/09/12 04:15:02;;;;;;;17.92;8.38;;;;;;;;;;4976546;28;20073;-91
2021/09/12 04:17:28;;;;;;;12.55;7.03;;;;;;;;;;4975399;28;20475;-88
2021/09/12 04:19:54;;;;;;;12.07;7.25;;;;;;;;;;4975474;28;20023;-84
2021/09/12 04:22:21;;;;;;;23.80;6.97;;;;;;;;;;4975549;28;20031;-92
2021/09/12 04:24:47;;;;;;;12.68;7.05;;;;;;;;;;4976483;28;20034;-91
2021/09/12 04:27:15;;;;;;;10.50;6.93;;;;;;;;;;4976900;28;20066;-90
2021/09/12 04:29:42;;;;;;;12.25;6.20;;;;;;;;;;4975211;28;20027;-83
2021/09/12 04:32:08;;;;;;;12.75;6.65;;;;;;;;;;4975161;28;20121;-88
2021/09/12 04:34:34;;;;;;;9.88;6.35;;;;;;;;;;4974922;28;20027;-89
2021/09/12 04:37:01;;;;;;;8.93;6.20;;;;;;;;;;4975973;28;20038;-89
2021/09/12 04:39:27;;;;;;;11.25;6.50;;;;;;;;;;4975161;28;20062;-87
2021/09/12 04:41:53;;;;;;;11.98;7.15;;;;;;;;;;4976203;28;20038;-89
2021/09/12 04:44:19;;;;;;;10.10;5.93;;;;;;;;;;4975001;28;20031;-89
2021/09/12 04:46:45;;;;;;;11.75;6.70;;;;;;;;;;4974908;28;20495;-90
2021/09/12 04:49:11;;;;;;;10.98;7.13;;;;;;;;;;4976681;28;20460;-88
2021/09/12 04:51:38;;;;;;;10.75;6.18;;;;;;;;;;4975850;28;20038;-89
2021/09/12 04:54:04;;;;;;;9.25;6.15;;;;;;;;;;4974806;28;20018;-88
2021/09/12 04:56:30;;;;;;;10.52;6.43;;;;;;;;;;4974553;28;20035;-88
2021/09/12 04:58:57;;;;;;;17.80;6.10;;;;;;;;;;4974395;28;20055;-87
2021/09/12 05:01:24;;;;;;;11.80;8.38;;;;;;;;;;4974614;28;20065;-88
2021/09/12 05:03:51;;;;;;;9.05;5.97;;;;;;;;;;4974298;28;20057;-88
2021/09/12 05:06:18;;;;;;;11.07;6.13;;;;;;;;;;4974318;28;20054;-83
2021/09/12 05:08:44;;;;;;;13.82;6.68;;;;;;;;;;4974768;28;20042;-86
2021/09/12 05:11:13;;;;;;;12.38;6.70;;;;;;;;;;4975106;28;20027;-86
2021/09/12 05:13:39;;;;;;;10.52;7.60;;;;;;;;;;4978010;28;20097;-89
2021/09/12 05:16:05;;;;;;;8.77;5.95;;;;;;;;;;4974629;28;20063;-89
2021/09/12 05:18:32;;;;;;;11.07;7.55;;;;;;;;;;4974083;28;20030;-87
2021/09/12 05:20:58;;;;;;;10.25;5.85;;;;;;;;;;4975988;28;20503;-83
2021/09/12 05:23:24;;;;;;;12.48;7.60;;;;;;;;;;4974013;28;20130;-91
2021/09/12 05:25:51;;;;;;;17.58;7.43;;;;;;;;;;4974053;28;20384;-90
2021/09/12 05:28:18;;;;;;;9.02;6.78;;;;;;;;;;4973992;28;20019;-89
2021/09/12 05:30:44;;;;;;;10.27;6.88;;;;;;;;;;4973863;28;20038;-91
2021/09/12 05:33:11;;;;;;;12.75;7.05;;;;;;;;;;4974271;28;20121;-89
2021/09/12 05:35:38;;;;;;;10.52;7.03;;;;;;;;;;4973904;28;20077;-84
2021/09/12 05:38:04;;;;;;;15.07;7.53;;;;;;;;;;4974804;28;20126;-83
2021/09/12 05:40:30;;;;;;;10.98;7.35;;;;;;;;;;4973462;28;20118;-83
2021/09/12 05:42:56;;;;;;;12.40;7.47;;;;;;;;;;4977574;28;20034;-84
2021/09/12 05:45:23;;;;;;;10.80;7.10;;;;;;;;;;4974895;28;20074;-87
2021/09/12 05:47:49;;;;;;;9.90;7.18;;;;;;;;;;4973427;28;20030;-86
2021/09/12 05:50:15;;;;;;;11.00;7.28;;;;;;;;;;4973368;28;20074;-85
2021/09/12 05:52:41;;;;;;;10.77;7.05;;;;;;;;;;4973511;28;20030;-86
2021/09/12 05:55:08;;;;;;;13.25;6.13;;;;;;;;;;4973368;28;20124;-86
2021/09/12 05:57:34;;;;;;;11.65;5.70;;;;;;;;;;4973328;28;20122;-86
2021/09/12 06:00:00;;;;;;;7.95;4.90;;;;;;;;;;4973368;28;20077;-86
2021/09/12 06:02:26;;;;;;;5.85;3.85;;;;;;;;;;4973078;28;20089;-86
2021/09/12 06:04:52;;;;;;;6.00;3.45;;;;;;;;;;4973247;28;20070;-87
2021/09/12 06:07:18;;;;;;;7.05;2.17;;;;;;;;;;4973181;28;20479;-88
2021/09/12 06:09:45;;;;;;;5.80;2.42;;;;;;;;;;4973209;28;20027;-86
2021/09/12 06:12:11;;;;;;;3.78;1.90;;;;;;;;;;4973093;28;20038;-88
2021/09/12 06:14:37;;;;;;;6.25;2.50;;;;;;;;;;4974419;28;20033;-86
2021/09/12 06:17:07;;;;;;;5.68;2.78;;;;;;;;;;4973063;28;20035;-84
2021/09/12 06:19:36;;;;;;;7.00;2.38;;;;;;;;;;4973027;28;20029;-86
2021/09/12 06:22:03;;;;;;;5.55;2.47;;;;;;;;;;4973117;28;20134;-87
2021/09/12 06:24:29;;;;;;;4.05;2.50;;;;;;;;;;4974237;28;20026;-86
2021/09/12 06:26:56;;;;;;;5.13;2.30;;;;;;;;;;4974819;28;20109;-85
2021/09/12 06:29:22;;;;;;;6.25;2.85;;;;;;;;;;4973059;28;20443;-86
2021/09/12 06:31:48;;;;;;;5.38;2.47;;;;;;;;;;4973133;28;20030;-88
2021/09/12 06:34:14;;;;;;;3.63;2.47;;;;;;;;;;4975421;28;20030;-87
2021/09/12 06:36:40;;;;;;;4.22;2.50;;;;;;;;;;4977055;28;20118;-84
2021/09/12 06:39:07;;;;;;;4.88;2.15;;;;;;;;;;4977854;28;20035;-86
2021/09/12 06:41:33;;;;;;;8.68;2.47;;;;;;;;;;4976511;28;20023;-84
2021/09/12 06:43:59;;;;;;;4.70;2.53;;;;;;;;;;4976429;28;20031;-87
2021/09/12 06:46:25;;;;;;;3.85;2.42;;;;;;;;;;4976442;28;20040;-86
2021/09/12 06:48:51;;;;;;;11.25;3.03;;;;;;;;;;4976360;28;20023;-87
2021/09/12 06:51:17;;;;;;;7.35;2.92;;;;;;;;;;4976513;28;20027;-85
2021/09/12 06:53:43;;;;;;;5.40;2.90;;;;;;;;;;4976442;28;20033;-85
2021/09/12 06:56:09;;;;;;;7.05;3.00;;;;;;;;;;4976299;28;20506;-86
2021/09/12 06:58:35;;;;;;;8.15;2.90;;;;;;;;;;4976264;28;20031;-87
2021/09/12 07:01:02;;;;;;;5.50;2.78;;;;;;;;;;4976413;28;20044;-87
2021/09/12 07:03:28;;;;;;;7.15;2.70;;;;;;;;;;4975895;28;20142;-86
2021/09/12 07:05:54;;;;;;;7.72;2.72;;;;;;;;;;4977964;28;20479;-87
2021/09/12 07:08:20;;;;;;;10.55;2.83;;;;;;;;;;4977250;28;20033;-87
2021/09/12 07:10:47;;;;;;;13.25;3.38;;;;;;;;;;4975973;28;20031;-86
2021/09/12 07:13:13;;;;;;;7.70;3.50;;;;;;;;;;4975926;28;20503;-87
2021/09/12 07:15:39;;;;;;;8.20;3.65;;;;;;;;;;4977676;28;20101;-85
2021/09/12 07:18:05;;;;;;;7.35;3.53;;;;;;;;;;4975823;28;20042;-87
2021/09/12 07:20:32;;;;;;;8.25;3.50;;;;;;;;;;4975813;28;20428;-86
2021/09/12 07:22:58;;;;;;;6.53;3.40;;;;;;;;;;4975691;28;20113;-85
2021/09/12 07:25:27;;;;;;;7.75;3.40;;;;;;;;;;4976015;28;20058;-86
2021/09/12 07:27:54;;;;;;;7.82;3.47;;;;;;;;;;4976009;28;20038;-87
2021/09/12 07:30:20;;;;;;;7.25;3.47;;;;;;;;;;4975704;28;20440;-87
2021/09/12 07:32:46;;;;;;;5.85;3.40;;;;;;;;;;4975738;28;20031;-84
2021/09/12 07:35:13;;;;;;;9.68;3.83;;;;;;;;;;4975557;28;20388;-85
2021/09/12 07:37:39;;;;;;;8.45;3.30;;;;;;;;;;4975535;28;20392;-86
2021/09/12 07:40:07;;;;;;;7.60;2.80;;;;;;;;;;4975824;28;20046;-87
2021/09/12 07:42:33;;;;;;;5.43;2.92;;;;;;;;;;4977185;28;20041;-88
2021/09/12 07:44:59;;;;;;;4.20;3.08;;;;;;;;;;4974691;28;20038;-88
2021/09/12 07:47:25;;;;;;;5.70;3.05;;;;;;;;;;4976637;28;20038;-88
2021/09/12 07:49:51;;;;;;;6.50;3.08;;;;;;;;;;4976669;28;20487;-87
2021/09/12 07:52:18;;;;;;;9.80;3.70;;;;;;;;;;4975215;28;20510;-86
2021/09/12 07:54:44;;;;;;;10.35;3.03;;;;;;;;;;4977093;28;20088;-88
2021/09/12 07:57:10;;;;;;;6.65;3.20;;;;;;;;;;4975089;28;20034;-88
2021/09/12 07:59:36;;;;;;;4.95;2.85;;;;;;;;;;4975116;28;20034;-87
2021/09/12 08:02:03;;;;;;;4.65;2.58;;;;;;;;;;4974863;28;20043;-87
2021/09/12 08:04:29;;;;;;;8.02;2.92;;;;;;;;;;4975046;28;20031;-87
2021/09/12 08:06:56;;;;;;;5.95;2.60;;;;;;;;;;4975002;28;20121;-88
2021/09/12 08:09:22;;;;;;;6.85;2.80;;;;;;;;;;4974930;28;20030;-84
2021/09/12 08:11:48;;;;;;;7.43;2.70;;;;;;;;;;4976705;28;20026;-85
2021/09/12 08:14:15;;;;;;;6.97;2.75;;;;;;;;;;4976744;28;20037;-86
2021/09/12 08:16:41;;;;;;;6.60;2.70;;;;;;;;;;4974696;28;20030;-84
2021/09/12 08:19:07;;;;;;;4.45;2.10;;;;;;;;;;4975996;28;20027;-88
2021/09/12 08:21:34;;;;;;;4.63;2.72;;;;;;;;;;4974700;28;20452;-85
2021/09/12 08:24:00;;;;;;;7.88;2.78;;;;;;;;;;4974666;28;20361;-87
2021/09/12 08:26:26;;;;;;;3.88;2.72;;;;;;;;;;4974631;28;20089;-86
2021/09/12 08:28:53;;;;;;;4.10;2.25;;;;;;;;;;4975809;28;20058;-89
2021/09/12 08:31:19;;;;;;;4.95;2.40;;;;;;;;;;4976326;28;20023;-89
2021/09/12 08:33:46;;;;;;;4.85;2.25;;;;;;;;;;4976302;28;20058;-87
2021/09/12 08:36:12;;;;;;;3.38;2.20;;;;;;;;;;4975740;28;20105;-86
2021/09/12 08:38:38;;;;;;;7.90;2.25;;;;;;;;;;4974357;28;20046;-85
2021/09/12 08:41:06;;;;;;;4.80;2.10;;;;;;;;;;4974300;28;20495;-87
2021/09/12 08:43:34;;;;;;;4.80;2.20;;;;;;;;;;4974410;28;20490;-82
2021/09/12 08:46:01;;;;;;;6.82;2.47;;;;;;;;;;4974252;28;20468;-87
2021/09/12 08:48:27;;;;;;;5.18;2.20;;;;;;;;;;4975500;28;20539;-86
2021/09/12 08:50:54;;;;;;;8.82;2.08;;;;;;;;;;4974269;28;20023;-86
2021/09/12 08:53:20;;;;;;;8.38;2.15;;;;;;;;;;4974117;28;20031;-85
2021/09/12 08:55:46;;;;;;;4.03;1.92;;;;;;;;;;4974099;28;20037;-87
2021/09/12 08:58:13;;;;;;;3.75;2.15;;;;;;;;;;4975404;28;20062;-88
2021/09/12 09:00:44;;;;;;;3.50;2.38;;;;;;;;;;4975768;28;20030;-83
2021/09/12 09:03:11;;;;;;;6.40;2.45;;;;;;;;;;4973797;28;20051;-86
2021/09/12 09:05:40;;;;;;;4.18;2.30;;;;;;;;;;4973912;28;20066;-85
2021/09/12 09:08:07;;;;;;;5.05;2.50;;;;;;;;;;4973960;28;20468;-88
2021/09/12 09:10:37;;;;;;;7.28;2.13;;;;;;;;;;4973804;28;20026;-86
2021/09/12 09:13:03;;;;;;;4.38;2.50;;;;;;;;;;4975114;28;20027;-88
2021/09/12 09:15:31;;;;;;;8.55;2.55;;;;;;;;;;4975539;28;20045;-88
2021/09/12 09:17:57;;;;;;;8.05;2.97;;;;;;;;;;4974902;28;20046;-87
2021/09/12 09:20:29;;;;;;;5.18;2.88;;;;;;;;;;4973735;28;20022;-83
2021/09/12 09:22:57;;;;;;;8.52;3.03;;;;;;;;;;4973658;28;20034;-86
2021/09/12 09:25:24;;;;;;;6.60;3.17;;;;;;;;;;4973673;28;20027;-87
2021/09/12 09:28:07;;;;;;;3.97;2.47;;;;;;;;;;4974792;28;20030;-87
2021/09/12 09:30:53;;;;;;;9.90;3.00;;;;;;;;;;4974799;28;20392;-88
2021/09/12 09:33:19;;;;;;;8.23;2.83;;;;;;;;;;4973810;28;20365;-87
2021/09/12 09:35:56;;;;;;;5.05;2.90;;;;;;;;;;4973530;28;20023;-85
2021/09/12 09:38:23;;;;;;;5.07;2.60;;;;;;;;;;4973452;28;20038;-87
2021/09/12 09:41:19;;;;;;;5.60;2.83;;;;;;;;;;4973487;28;20586;-84
2021/09/12 09:43:47;;;;;;;13.10;3.00;;;;;;;;;;4965687;28;20035;-87
2021/09/12 09:46:46;;;;;;;8.70;3.05;;;;;;;;;;4973181;28;20023;-84
2021/09/12 09:49:21;;;;;;;5.60;2.90;;;;;;;;;;4952112;28;20447;-86
2021/09/12 09:51:54;;;;;;;5.93;2.97;;;;;;;;;;4973420;28;20034;-85
2021/09/12 09:54:21;;;;;;;7.65;2.78;;;;;;;;;;4973333;28;20030;-87
2021/09/12 09:56:49;;;;;;;6.65;3.00;;;;;;;;;;4972890;28;20059;-86
2021/09/12 09:59:16;;;;;;;4.82;2.65;;;;;;;;;;4973264;28;20046;-86
2021/09/12 10:01:43;;;;;;;9.43;3.05;;;;;;;;;;4973024;28;20019;-86
2021/09/12 10:04:09;;;;;;;5.93;2.85;;;;;;;;;;4973310;28;20038;-84
2021/09/12 10:06:36;;;;;;;5.63;2.80;;;;;;;;;;4973221;28;20033;-86
2021/09/12 10:09:02;;;;;;;13.50;3.20;;;;;;;;;;4974249;28;20027;-86
2021/09/12 10:11:30;;;;;;;12.07;3.63;;;;;;;;;;4976995;28;20383;-86
2021/09/12 10:13:57;;;;;;;4.75;3.03;;;;;;;;;;4978158;28;20494;-84
2021/09/12 10:16:23;;;;;;;4.95;2.50;;;;;;;;;;4976870;28;20027;-85
2021/09/12 10:18:49;;;;;;;5.20;2.65;;;;;;;;;;4976969;28;20039;-87
2021/09/12 10:21:26;;;;;;;6.75;2.80;;;;;;;;;;4976880;28;20027;-87
2021/09/12 10:23:58;;;;;;;7.32;2.80;;;;;;;;;;4976874;28;20062;-85
2021/09/12 10:26:29;;;;;;;4.65;2.97;;;;;;;;;;4976501;28;20029;-87
2021/09/12 10:28:55;;;;;;;4.78;2.45;;;;;;;;;;4976414;28;20034;-86
2021/09/12 10:31:27;;;;;;;7.18;2.95;;;;;;;;;;4976741;28;20058;-84
2021/09/12 10:34:12;;;;;;;3.25;2.20;;;;;;;;;;4978037;28;20026;-86
2021/09/12 10:36:40;;;;;;;7.47;2.53;;;;;;;;;;4976633;28;20089;-86
2021/09/12 10:39:26;;;;;;;3.80;2.60;;;;;;;;;;4976695;28;20031;-85
2021/09/12 10:42:10;;;;;;;5.05;2.50;;;;;;;;;;4978167;28;20022;-85
2021/09/12 10:44:37;;;;;;;4.57;2.35;;;;;;;;;;4976509;28;20411;-86
2021/09/12 10:47:10;;;;;;;11.73;3.10;;;;;;;;;;4976510;28;20034;-87
2021/09/12 10:49:36;;;;;;;6.40;2.50;;;;;;;;;;4976419;28;20031;-86
2021/09/12 10:52:02;;;;;;;4.28;2.88;;;;;;;;;;4978050;28;20066;-84
2021/09/12 10:54:29;;;;;;;4.97;3.03;;;;;;;;;;4977702;28;20027;-87
2021/09/12 10:57:09;;;;;;;4.35;2.67;;;;;;;;;;4976452;28;20082;-87
2021/09/12 10:59:35;;;;;;;4.55;2.58;;;;;;;;;;4976415;28;20042;-87
2021/09/12 11:02:02;;;;;;;4.03;2.60;;;;;;;;;;4975986;28;20035;-87
2021/09/12 11:04:32;;;;;;;10.60;2.90;;;;;;;;;;4978070;28;20468;-84
2021/09/12 11:07:01;;;;;;;4.57;2.95;;;;;;;;;;4978031;28;20024;-85
2021/09/12 11:09:28;;;;;;;4.32;2.70;;;;;;;;;;4977449;28;20065;-86
2021/09/12 11:11:56;;;;;;;8.57;2.83;;;;;;;;;;4976188;28;20081;-86
2021/09/12 11:14:22;;;;;;;4.25;2.30;;;;;;;;;;4976079;28;20034;-86
2021/09/12 11:16:49;;;;;;;4.10;2.80;;;;;;;;;;4977669;28;20026;-86
2021/09/12 11:19:15;;;;;;;4.55;2.63;;;;;;;;;;4977108;28;20101;-87
2021/09/12 11:21:41;;;;;;;5.55;2.42;;;;;;;;;;4975600;28;20370;-87
2021/09/12 11:24:16;;;;;;;13.05;2.70;;;;;;;;;;4977076;28;20027;-85
2021/09/12 11:26:45;;;;;;;5.68;2.58;;;;;;;;;;4975720;28;20488;-88
2021/09/12 11:29:20;;;;;;;3.70;2.58;;;;;;;;;;4977121;28;20480;-87
2021/09/12 11:31:48;;;;;;;5.50;2.78;;;;;;;;;;4975708;28;20066;-85
2021/09/12 11:34:18;;;;;;;5.63;2.55;;;;;;;;;;4975923;28;20030;-88
2021/09/12 11:36:50;;;;;;;4.45;2.60;;;;;;;;;;4976819;28;20110;-87
2021/09/12 11:39:19;;;;;;;5.28;2.58;;;;;;;;;;4975598;28;20039;-87
2021/09/12 11:41:45;;;;;;;6.40;2.80;;;;;;;;;;4975533;28;20030;-86
2021/09/12 11:44:12;;;;;;;4.68;2.75;;;;;;;;;;4976797;28;20058;-86
2021/09/12 11:46:48;;;;;;;2.88;2.20;;;;;;;;;;4975609;28;20109;-86
2021/09/12 11:49:15;;;;;;;5.70;2.63;;;;;;;;;;4975447;28;20030;-84
2021/09/12 11:51:43;;;;;;;4.13;2.60;;;;;;;;;;4975287;28;20031;-87
2021/09/12 11:54:13;;;;;;;4.82;2.25;;;;;;;;;;4975322;28;20025;-87
2021/09/12 11:56:40;;;;;;;4.18;2.63;;;;;;;;;;4975431;28;20023;-87
2021/09/12 11:59:06;;;;;;;6.80;2.88;;;;;;;;;;4975181;28;20090;-85
2021/09/12 12:01:33;;;;;;;5.05;2.75;;;;;;;;;;4975186;28;20023;-86
2021/09/12 12:04:02;;;;;;;5.00;3.00;;;;;;;;;;4974957;28;20408;-85
2021/09/12 12:06:28;;;;;;;4.10;2.88;;;;;;;;;;4974999;28;20022;-84
2021/09/12 12:09:05;;;;;;;3.67;2.53;;;;;;;;;;4975113;28;20081;-86
2021/09/12 12:11:32;;;;;;;4.03;2.70;;;;;;;;;;4975078;28;20110;-86
2021/09/12 12:13:58;;;;;;;3.15;2.05;;;;;;;;;;4974870;28;20483;-87
2021/09/12 12:16:24;;;;;;;4.28;2.88;;;;;;;;;;4974935;28;20023;-86
2021/09/12 12:19:04;;;;;;;5.57;2.20;;;;;;;;;;4976106;28;20106;-88
2021/09/12 12:21:31;;;;;;;6.55;2.72;;;;;;;;;;4976586;28;20019;-86
2021/09/12 12:23:58;;;;;;;4.65;2.78;;;;;;;;;;4974977;28;20432;-85
2021/09/12 12:26:24;;;;;;;7.88;2.53;;;;;;;;;;4974662;28;20050;-85
2021/09/12 12:28:57;;;;;;;7.75;2.60;;;;;;;;;;4974549;28;20118;-84
2021/09/12 12:31:23;;;;;;;6.53;2.75;;;;;;;;;;4973973;28;20122;-85
2021/09/12 12:33:49;;;;;;;4.18;2.50;;;;;;;;;;4974423;28;20399;-86
2021/09/12 12:36:17;;;;;;;3.30;2.22;;;;;;;;;;4974606;28;20182;-86
2021/09/12 12:38:43;;;;;;;3.88;2.50;;;;;;;;;;4974488;28;20074;-88
2021/09/12 12:41:14;;;;;;;7.22;2.45;;;;;;;;;;4975636;28;20038;-87
2021/09/12 12:43:40;;;;;;;4.50;2.63;;;;;;;;;;4976197;28;20542;-84
2021/09/12 12:46:07;;;;;;;5.95;2.42;;;;;;;;;;4975652;28;20388;-84
2021/09/12 12:48:34;;;;;;;5.75;2.50;;;;;;;;;;4974316;28;20086;-82
2021/09/12 12:51:10;;;;;;;4.45;2.60;;;;;;;;;;4975623;28;20026;-82
2021/09/12 12:53:39;;;;;;;8.27;2.42;;;;;;;;;;4974401;28;20090;-83
2021/09/12 12:56:06;;;;;;;7.80;2.50;;;;;;;;;;4975297;28;20433;-83
2021/09/12 12:58:33;;;;;;;4.82;2.17;;;;;;;;;;4973948;28;20049;-84
2021/09/12 13:01:02;;;;;;;3.33;2.10;;;;;;;;;;4974166;28;20055;-83
2021/09/12 13:03:29;;;;;;;3.95;2.50;;;;;;;;;;4973885;28;20058;-85
2021/09/12 13:05:56;;;;;;;4.00;2.10;;;;;;;;;;4975146;28;20022;-84
2021/09/12 13:08:23;;;;;;;5.65;2.15;;;;;;;;;;4972933;28;20492;-82
2021/09/12 13:10:50;;;;;;;7.93;2.80;;;;;;;;;;4973523;28;20069;-81
2021/09/12 13:13:17;;;;;;;3.30;2.00;;;;;;;;;;4973386;28;20041;-83
2021/09/12 13:15:44;;;;;;;4.10;2.33;;;;;;;;;;4974993;28;20035;-83
2021/09/12 13:18:10;;;;;;;3.60;2.08;;;;;;;;;;4974800;28;20077;-82
2021/09/12 13:20:37;;;;;;;3.55;2.20;;;;;;;;;;4974813;28;20031;-82
2021/09/12 13:23:04;;;;;;;3.78;2.30;;;;;;;;;;4974955;28;20026;-82
2021/09/12 13:25:30;;;;;;;5.72;2.55;;;;;;;;;;4974777;28;20364;-83
2021/09/12 13:27:56;;;;;;;5.07;2.30;;;;;;;;;;4973135;28;20034;-83
2021/09/12 13:30:22;;;;;;;3.80;2.30;;;;;;;;;;4973585;28;20062;-83
2021/09/12 13:32:49;;;;;;;3.65;2.28;;;;;;;;;;4974618;28;20118;-83
2021/09/12 13:35:15;;;;;;;6.03;2.20;;;;;;;;;;4973591;28;20063;-83
2021/09/12 13:37:42;;;;;;;5.15;2.25;;;;;;;;;;4973591;28;20121;-83
2021/09/12 13:40:09;;;;;;;5.63;2.05;;;;;;;;;;4974726;28;20023;-82
2021/09/12 13:42:35;;;;;;;3.17;2.15;;;;;;;;;;4973938;28;20035;-86
2021/09/12 13:45:01;;;;;;;4.10;2.38;;;;;;;;;;4973520;28;20089;-83
2021/09/12 13:47:28;;;;;;;4.28;2.40;;;;;;;;;;4975261;28;20030;-83
2021/09/12 13:49:54;;;;;;;3.20;1.90;;;;;;;;;;4974714;28;20022;-84
2021/09/12 13:52:20;;;;;;;4.30;2.20;;;;;;;;;;4973352;28;20531;-84
2021/09/12 13:54:46;;;;;;;5.80;1.98;;;;;;;;;;4974972;28;20026;-84
2021/09/12 13:57:12;;;;;;;3.45;2.20;;;;;;;;;;4974459;28;20082;-87
2021/09/12 13:59:38;;;;;;;3.88;2.15;;;;;;;;;;4973105;28;20057;-86
2021/09/12 14:02:04;;;;;;;3.17;1.88;;;;;;;;;;4974055;28;20484;-86
2021/09/12 14:04:32;;;;;;;6.57;1.88;;;;;;;;;;4978874;28;20073;-84
2021/09/12 14:06:58;;;;;;;2.72;1.83;;;;;;;;;;4973719;28;20103;-88
2021/09/12 14:09:24;;;;;;;3.88;1.80;;;;;;;;;;4974296;28;20085;-85
2021/09/12 14:11:50;;;;;;;3.22;2.00;;;;;;;;;;4974192;28;20027;-85
2021/09/12 14:14:17;;;;;;;3.47;2.03;;;;;;;;;;4976193;28;20384;-86
2021/09/12 14:16:43;;;;;;;3.55;1.90;;;;;;;;;;4973528;28;20034;-87
2021/09/12 14:19:10;;;;;;;3.30;2.10;;;;;;;;;;4974379;28;20034;-83
2021/09/12 14:21:36;;;;;;;4.18;2.00;;;;;;;;;;4973208;28;20023;-82
2021/09/12 14:24:02;;;;;;;5.60;2.05;;;;;;;;;;4973195;28;20123;-84
2021/09/12 14:26:28;;;;;;;2.60;1.77;;;;;;;;;;4973140;28;20019;-83
2021/09/12 14:28:54;;;;;;;3.63;2.17;;;;;;;;;;4973121;28;20027;-83
2021/09/12 14:31:20;;;;;;;4.28;2.30;;;;;;;;;;4973082;28;20125;-84
2021/09/12 14:33:47;;;;;;;11.07;2.10;;;;;;;;;;4972897;28;20023;-83
2021/09/12 14:36:13;;;;;;;3.47;2.28;;;;;;;;;;4972903;28;20061;-84
2021/09/12 14:38:39;;;;;;;5.03;2.55;;;;;;;;;;4972824;28;20043;-82
2021/09/12 14:41:06;;;;;;;5.70;2.47;;;;;;;;;;4973007;28;20045;-83